Litchfield, California
Current Conditions -  °F | °C
As of 3:35 AM on Tuesday 21 Oct 2014 (Local Time) from KRTS Reporting Station
Scattered Clouds Scattered Clouds  
Wind Chill: 32°   Ceiling: Unl
Heat Index: 41°   Visibility: 10mi
Dew Point: 30°   Wind: 17mph
Humidity: 65%   Direction: 280°W
Pressure: 30.06"   Gusts: 23mph
Location:  40.38°N, 120.39°W
Report Text: KRTS 211035Z AUTO 28015G20KT 10SM SCT037 05/M01 A3006 RMK AO2
Loading
Personal Weather Stations






























Interactive Weather Map New forecast layout! Learn more

10-Day Weather Forecast

Advertisements
Track Severe Weather on mobile